sensor_id;sensor_type;location;lat;lon;timestamp;temperature;humidity
52963;DHT22;38827;53.024;6.596;2023-02-19T00:01:40;9.30;89.60
52963;DHT22;38827;53.024;6.596;2023-02-19T00:04:18;9.30;89.60
52963;DHT22;38827;53.024;6.596;2023-02-19T00:06:45;9.30;89.50
52963;DHT22;38827;53.024;6.596;2023-02-19T00:09:12;9.30;89.60
52963;DHT22;38827;53.024;6.596;2023-02-19T00:11:39;9.30;89.70
52963;DHT22;38827;53.024;6.596;2023-02-19T00:14:07;9.30;89.80
52963;DHT22;38827;53.024;6.596;2023-02-19T00:16:35;9.30;89.70
52963;DHT22;38827;53.024;6.596;2023-02-19T00:19:04;9.30;89.60
52963;DHT22;38827;53.024;6.596;2023-02-19T00:21:31;9.30;89.70
52963;DHT22;38827;53.024;6.596;2023-02-19T00:24:02;9.30;89.80
52963;DHT22;38827;53.024;6.596;2023-02-19T00:26:29;9.30;89.90
52963;DHT22;38827;53.024;6.596;2023-02-19T00:28:56;9.30;89.90
52963;DHT22;38827;53.024;6.596;2023-02-19T00:31:30;9.30;89.90
52963;DHT22;38827;53.024;6.596;2023-02-19T00:34:02;9.30;90.00
52963;DHT22;38827;53.024;6.596;2023-02-19T00:36:31;9.30;90.10
52963;DHT22;38827;53.024;6.596;2023-02-19T00:38:58;9.20;90.10
52963;DHT22;38827;53.024;6.596;2023-02-19T00:41:24;9.20;90.00
52963;DHT22;38827;53.024;6.596;2023-02-19T00:44:01;9.30;90.10
52963;DHT22;38827;53.024;6.596;2023-02-19T00:46:34;9.30;90.10
52963;DHT22;38827;53.024;6.596;2023-02-19T00:49:00;9.20;90.20
52963;DHT22;38827;53.024;6.596;2023-02-19T00:51:29;9.20;90.40
52963;DHT22;38827;53.024;6.596;2023-02-19T00:53:55;9.30;90.20
52963;DHT22;38827;53.024;6.596;2023-02-19T00:56:21;9.30;90.20
52963;DHT22;38827;53.024;6.596;2023-02-19T00:58:48;9.30;90.00
52963;DHT22;38827;53.024;6.596;2023-02-19T01:01:14;9.30;90.10
52963;DHT22;38827;53.024;6.596;2023-02-19T01:03:40;9.30;90.20
52963;DHT22;38827;53.024;6.596;2023-02-19T01:06:16;9.30;90.30
52963;DHT22;38827;53.024;6.596;2023-02-19T01:08:42;9.30;90.30
52963;DHT22;38827;53.024;6.596;2023-02-19T01:11:09;9.30;90.20
52963;DHT22;38827;53.024;6.596;2023-02-19T01:13:35;9.30;90.20
52963;DHT22;38827;53.024;6.596;2023-02-19T01:16:10;9.20;90.30
52963;DHT22;38827;53.024;6.596;2023-02-19T01:18:39;9.20;90.40
52963;DHT22;38827;53.024;6.596;2023-02-19T01:21:06;9.20;90.40
52963;DHT22;38827;53.024;6.596;2023-02-19T01:23:33;9.20;90.20
52963;DHT22;38827;53.024;6.596;2023-02-19T01:26:07;9.20;90.10
52963;DHT22;38827;53.024;6.596;2023-02-19T01:28:57;9.20;90.00
52963;DHT22;38827;53.024;6.596;2023-02-19T01:31:23;9.20;89.90
52963;DHT22;38827;53.024;6.596;2023-02-19T01:33:52;9.20;90.10
52963;DHT22;38827;53.024;6.596;2023-02-19T01:36:18;9.20;90.10
52963;DHT22;38827;53.024;6.596;2023-02-19T01:38:44;9.20;90.10
52963;DHT22;38827;53.024;6.596;2023-02-19T01:41:12;9.20;90.00
52963;DHT22;38827;53.024;6.596;2023-02-19T01:46:27;9.20;89.90
52963;DHT22;38827;53.024;6.596;2023-02-19T01:48:54;9.20;90.00
52963;DHT22;38827;53.024;6.596;2023-02-19T01:51:21;9.20;90.00
52963;DHT22;38827;53.024;6.596;2023-02-19T01:53:52;9.20;90.00
52963;DHT22;38827;53.024;6.596;2023-02-19T01:56:19;9.10;89.80
52963;DHT22;38827;53.024;6.596;2023-02-19T01:58:45;9.10;89.80
52963;DHT22;38827;53.024;6.596;2023-02-19T02:01:11;9.10;89.90
52963;DHT22;38827;53.024;6.596;2023-02-19T02:03:39;9.10;89.80
52963;DHT22;38827;53.024;6.596;2023-02-19T02:06:11;9.10;89.90
52963;DHT22;38827;53.024;6.596;2023-02-19T02:08:40;9.10;90.00
52963;DHT22;38827;53.024;6.596;2023-02-19T02:11:25;9.00;90.00
52963;DHT22;38827;53.024;6.596;2023-02-19T02:13:52;9.00;90.20
52963;DHT22;38827;53.024;6.596;2023-02-19T02:19:14;9.00;90.30
52963;DHT22;38827;53.024;6.596;2023-02-19T02:24:49;8.90;90.50
52963;DHT22;38827;53.024;6.596;2023-02-19T02:32:44;8.80;90.80
52963;DHT22;38827;53.024;6.596;2023-02-19T02:35:20;8.80;90.80
52963;DHT22;38827;53.024;6.596;2023-02-19T02:37:47;8.80;91.00
52963;DHT22;38827;53.024;6.596;2023-02-19T02:40:14;8.80;90.90
52963;DHT22;38827;53.024;6.596;2023-02-19T02:42:41;8.70;90.90
52963;DHT22;38827;53.024;6.596;2023-02-19T02:45:22;8.70;91.20
52963;DHT22;38827;53.024;6.596;2023-02-19T02:50:45;8.70;91.20
52963;DHT22;38827;53.024;6.596;2023-02-19T02:53:20;8.70;90.70
52963;DHT22;38827;53.024;6.596;2023-02-19T02:56:06;8.60;89.90
52963;DHT22;38827;53.024;6.596;2023-02-19T02:58:33;8.40;89.60
52963;DHT22;38827;53.024;6.596;2023-02-19T03:01:04;8.30;89.40
52963;DHT22;38827;53.024;6.596;2023-02-19T03:03:53;8.20;89.50
52963;DHT22;38827;53.024;6.596;2023-02-19T03:06:24;8.10;89.30
52963;DHT22;38827;53.024;6.596;2023-02-19T03:09:19;8.00;89.30
52963;DHT22;38827;53.024;6.596;2023-02-19T03:11:48;7.90;89.20
52963;DHT22;38827;53.024;6.596;2023-02-19T03:14:40;7.80;89.30
52963;DHT22;38827;53.024;6.596;2023-02-19T03:17:33;7.80;89.40
52963;DHT22;38827;53.024;6.596;2023-02-19T03:20:20;7.80;89.50
52963;DHT22;38827;53.024;6.596;2023-02-19T03:22:51;7.80;89.50
52963;DHT22;38827;53.024;6.596;2023-02-19T03:25:18;7.80;89.40
52963;DHT22;38827;53.024;6.596;2023-02-19T03:28:06;7.70;88.90
52963;DHT22;38827;53.024;6.596;2023-02-19T03:30:46;7.70;89.40
52963;DHT22;38827;53.024;6.596;2023-02-19T03:33:20;7.80;89.50
52963;DHT22;38827;53.024;6.596;2023-02-19T03:35:57;7.80;89.50
52963;DHT22;38827;53.024;6.596;2023-02-19T03:38:33;7.80;89.50
52963;DHT22;38827;53.024;6.596;2023-02-19T03:41:04;7.90;89.50
52963;DHT22;38827;53.024;6.596;2023-02-19T03:43:51;7.80;88.80
52963;DHT22;38827;53.024;6.596;2023-02-19T03:46:33;7.90;89.40
52963;DHT22;38827;53.024;6.596;2023-02-19T03:49:08;7.90;89.20
52963;DHT22;38827;53.024;6.596;2023-02-19T04:12:38;7.70;88.40
52963;DHT22;38827;53.024;6.596;2023-02-19T04:15:33;7.70;88.10
52963;DHT22;38827;53.024;6.596;2023-02-19T04:18:14;7.60;88.20
52963;DHT22;38827;53.024;6.596;2023-02-19T04:25:09;7.60;87.90
52963;DHT22;38827;53.024;6.596;2023-02-19T04:27:44;7.50;87.90
52963;DHT22;38827;53.024;6.596;2023-02-19T04:30:45;7.50;88.00
52963;DHT22;38827;53.024;6.596;2023-02-19T04:33:17;7.50;87.80
52963;DHT22;38827;53.024;6.596;2023-02-19T04:35:46;7.50;88.00
52963;DHT22;38827;53.024;6.596;2023-02-19T04:38:28;7.50;87.80
52963;DHT22;38827;53.024;6.596;2023-02-19T04:46:50;7.40;87.90
52963;DHT22;38827;53.024;6.596;2023-02-19T04:49:16;7.30;87.90
52963;DHT22;38827;53.024;6.596;2023-02-19T04:51:41;7.30;87.90
52963;DHT22;38827;53.024;6.596;2023-02-19T04:54:11;7.30;87.80
52963;DHT22;38827;53.024;6.596;2023-02-19T04:56:38;7.30;87.70
52963;DHT22;38827;53.024;6.596;2023-02-19T04:59:04;7.30;87.60
52963;DHT22;38827;53.024;6.596;2023-02-19T05:01:30;7.30;87.60
52963;DHT22;38827;53.024;6.596;2023-02-19T05:03:56;7.30;87.60
52963;DHT22;38827;53.024;6.596;2023-02-19T05:06:21;7.30;87.70
52963;DHT22;38827;53.024;6.596;2023-02-19T05:08:47;7.30;87.70
52963;DHT22;38827;53.024;6.596;2023-02-19T05:11:13;7.30;87.70
52963;DHT22;38827;53.024;6.596;2023-02-19T05:13:43;7.30;87.60
52963;DHT22;38827;53.024;6.596;2023-02-19T05:16:11;7.30;87.60
52963;DHT22;38827;53.024;6.596;2023-02-19T05:18:44;7.30;87.70
52963;DHT22;38827;53.024;6.596;2023-02-19T05:21:11;7.30;87.70
52963;DHT22;38827;53.024;6.596;2023-02-19T05:23:37;7.30;87.70
52963;DHT22;38827;53.024;6.596;2023-02-19T05:26:15;7.30;87.70
52963;DHT22;38827;53.024;6.596;2023-02-19T05:28:43;7.30;87.80
52963;DHT22;38827;53.024;6.596;2023-02-19T05:31:09;7.30;87.80
52963;DHT22;38827;53.024;6.596;2023-02-19T05:33:35;7.30;87.30
52963;DHT22;38827;53.024;6.596;2023-02-19T05:36:07;7.30;87.70
52963;DHT22;38827;53.024;6.596;2023-02-19T05:38:36;7.30;87.60
52963;DHT22;38827;53.024;6.596;2023-02-19T05:41:12;7.30;87.40
52963;DHT22;38827;53.024;6.596;2023-02-19T05:43:39;7.30;87.30
52963;DHT22;38827;53.024;6.596;2023-02-19T05:46:05;7.20;87.30
52963;DHT22;38827;53.024;6.596;2023-02-19T05:48:32;7.20;87.10
52963;DHT22;38827;53.024;6.596;2023-02-19T05:51:03;7.10;87.00
52963;DHT22;38827;53.024;6.596;2023-02-19T05:53:29;7.10;87.10
52963;DHT22;38827;53.024;6.596;2023-02-19T05:55:55;7.00;86.90
52963;DHT22;38827;53.024;6.596;2023-02-19T05:58:21;6.90;86.70
52963;DHT22;38827;53.024;6.596;2023-02-19T06:00:46;6.90;87.00
52963;DHT22;38827;53.024;6.596;2023-02-19T06:03:12;6.90;86.80
52963;DHT22;38827;53.024;6.596;2023-02-19T06:05:38;6.80;86.90
52963;DHT22;38827;53.024;6.596;2023-02-19T06:08:03;6.80;86.90
52963;DHT22;38827;53.024;6.596;2023-02-19T06:10:32;6.80;87.00
52963;DHT22;38827;53.024;6.596;2023-02-19T06:13:04;6.70;86.90
52963;DHT22;38827;53.024;6.596;2023-02-19T06:15:30;6.70;86.80
52963;DHT22;38827;53.024;6.596;2023-02-19T06:17:56;6.70;86.70
52963;DHT22;38827;53.024;6.596;2023-02-19T06:20:21;6.60;86.50
52963;DHT22;38827;53.024;6.596;2023-02-19T06:22:49;6.60;86.60
52963;DHT22;38827;53.024;6.596;2023-02-19T06:25:15;6.60;86.60
52963;DHT22;38827;53.024;6.596;2023-02-19T06:27:42;6.60;86.70
52963;DHT22;38827;53.024;6.596;2023-02-19T06:30:08;6.60;86.70
52963;DHT22;38827;53.024;6.596;2023-02-19T06:33:13;6.60;86.80
52963;DHT22;38827;53.024;6.596;2023-02-19T06:35:41;6.60;86.70
52963;DHT22;38827;53.024;6.596;2023-02-19T06:38:22;6.60;86.70
52963;DHT22;38827;53.024;6.596;2023-02-19T06:41:24;6.60;86.70
52963;DHT22;38827;53.024;6.596;2023-02-19T06:48:17;6.60;86.50
52963;DHT22;38827;53.024;6.596;2023-02-19T06:51:11;6.60;86.40
52963;DHT22;38827;53.024;6.596;2023-02-19T06:58:30;6.60;86.50
52963;DHT22;38827;53.024;6.596;2023-02-19T07:04:44;6.60;86.40
52963;DHT22;38827;53.024;6.596;2023-02-19T07:07:31;6.60;86.30
52963;DHT22;38827;53.024;6.596;2023-02-19T07:10:33;6.60;86.20
52963;DHT22;38827;53.024;6.596;2023-02-19T07:13:11;6.60;86.20
52963;DHT22;38827;53.024;6.596;2023-02-19T07:15:47;6.70;86.20
52963;DHT22;38827;53.024;6.596;2023-02-19T07:19:04;6.70;86.30
52963;DHT22;38827;53.024;6.596;2023-02-19T07:22:12;6.70;86.20
52963;DHT22;38827;53.024;6.596;2023-02-19T08:10:28;12.40;73.30
52963;DHT22;38827;53.024;6.596;2023-02-19T08:13:46;13.30;71.20
52963;DHT22;38827;53.024;6.596;2023-02-19T08:16:13;14.20;67.90
52963;DHT22;38827;53.024;6.596;2023-02-19T08:19:16;14.60;66.30
52963;DHT22;38827;53.024;6.596;2023-02-19T08:21:54;15.00;64.00
52963;DHT22;38827;53.024;6.596;2023-02-19T08:24:21;15.60;62.20
52963;DHT22;38827;53.024;6.596;2023-02-19T08:26:53;16.20;60.80
52963;DHT22;38827;53.024;6.596;2023-02-19T08:29:34;17.10;58.50
52963;DHT22;38827;53.024;6.596;2023-02-19T08:32:18;18.10;56.50
52963;DHT22;38827;53.024;6.596;2023-02-19T08:34:43;18.90;54.70
52963;DHT22;38827;53.024;6.596;2023-02-19T08:37:27;19.50;52.50
52963;DHT22;38827;53.024;6.596;2023-02-19T08:40:03;20.10;50.70
52963;DHT22;38827;53.024;6.596;2023-02-19T08:42:29;20.50;49.10
52963;DHT22;38827;53.024;6.596;2023-02-19T08:44:55;20.80;48.40
52963;DHT22;38827;53.024;6.596;2023-02-19T08:47:24;21.20;47.50
52963;DHT22;38827;53.024;6.596;2023-02-19T08:50:13;21.40;46.30
52963;DHT22;38827;53.024;6.596;2023-02-19T08:53:07;21.60;46.30
52963;DHT22;38827;53.024;6.596;2023-02-19T08:56:15;21.60;45.70
52963;DHT22;38827;53.024;6.596;2023-02-19T08:59:15;21.80;45.90
52963;DHT22;38827;53.024;6.596;2023-02-19T09:01:41;21.80;44.80
52963;DHT22;38827;53.024;6.596;2023-02-19T09:04:38;21.80;44.00
52963;DHT22;38827;53.024;6.596;2023-02-19T09:07:12;21.40;43.70
52963;DHT22;38827;53.024;6.596;2023-02-19T09:09:50;20.80;44.10
52963;DHT22;38827;53.024;6.596;2023-02-19T09:16:15;18.50;46.10
52963;DHT22;38827;53.024;6.596;2023-02-19T09:18:51;17.00;48.00
52963;DHT22;38827;53.024;6.596;2023-02-19T09:22:06;16.50;49.20
52963;DHT22;38827;53.024;6.596;2023-02-19T09:24:53;15.90;50.30
52963;DHT22;38827;53.024;6.596;2023-02-19T10:14:18;16.80;47.90
52963;DHT22;38827;53.024;6.596;2023-02-19T10:17:07;15.80;51.00
52963;DHT22;38827;53.024;6.596;2023-02-19T10:27:09;13.70;54.70
52963;DHT22;38827;53.024;6.596;2023-02-19T10:30:21;13.30;54.30
52963;DHT22;38827;53.024;6.596;2023-02-19T10:48:05;14.10;54.20
52963;DHT22;38827;53.024;6.596;2023-02-19T11:04:32;12.50;55.70
52963;DHT22;38827;53.024;6.596;2023-02-19T11:13:45;15.30;52.40
52963;DHT22;38827;53.024;6.596;2023-02-19T11:16:11;16.90;50.00
52963;DHT22;38827;53.024;6.596;2023-02-19T11:18:37;18.10;47.60
52963;DHT22;38827;53.024;6.596;2023-02-19T11:24:53;20.00;43.90
52963;DHT22;38827;53.024;6.596;2023-02-19T11:27:32;21.10;41.90
52963;DHT22;38827;53.024;6.596;2023-02-19T11:53:24;21.40;38.60
52963;DHT22;38827;53.024;6.596;2023-02-19T12:45:58;11.60;52.70
52963;DHT22;38827;53.024;6.596;2023-02-19T13:40:18;10.00;58.60
52963;DHT22;38827;53.024;6.596;2023-02-19T14:07:53;10.00;59.20
52963;DHT22;38827;53.024;6.596;2023-02-19T14:23:52;9.90;59.70
52963;DHT22;38827;53.024;6.596;2023-02-19T14:27:11;9.90;59.80
52963;DHT22;38827;53.024;6.596;2023-02-19T14:30:17;9.90;59.70
52963;DHT22;38827;53.024;6.596;2023-02-19T14:40:49;10.80;57.30
52963;DHT22;38827;53.024;6.596;2023-02-19T14:50:30;11.10;56.90
52963;DHT22;38827;53.024;6.596;2023-02-19T14:53:03;11.40;56.30
52963;DHT22;38827;53.024;6.596;2023-02-19T14:59:23;12.30;53.80
52963;DHT22;38827;53.024;6.596;2023-02-19T15:08:15;12.10;53.80
52963;DHT22;38827;53.024;6.596;2023-02-19T15:11:25;11.70;54.30
52963;DHT22;38827;53.024;6.596;2023-02-19T15:19:32;11.70;54.80
52963;DHT22;38827;53.024;6.596;2023-02-19T15:25:43;10.80;56.40
52963;DHT22;38827;53.024;6.596;2023-02-19T15:35:34;9.90;59.40
52963;DHT22;38827;53.024;6.596;2023-02-19T17:00:30;7.70;67.20
52963;DHT22;38827;53.024;6.596;2023-02-19T17:06:26;7.70;67.70
52963;DHT22;38827;53.024;6.596;2023-02-19T17:12:22;7.60;68.20
52963;DHT22;38827;53.024;6.596;2023-02-19T18:02:16;6.70;71.10
52963;DHT22;38827;53.024;6.596;2023-02-19T18:11:19;6.60;71.40
52963;DHT22;38827;53.024;6.596;2023-02-19T18:13:55;6.60;71.70
52963;DHT22;38827;53.024;6.596;2023-02-19T18:23:39;6.60;72.20
52963;DHT22;38827;53.024;6.596;2023-02-19T18:26:23;6.60;72.20
52963;DHT22;38827;53.024;6.596;2023-02-19T18:29:09;6.60;72.20
52963;DHT22;38827;53.024;6.596;2023-02-19T18:31:34;6.60;72.40
52963;DHT22;38827;53.024;6.596;2023-02-19T19:10:46;6.50;73.70
52963;DHT22;38827;53.024;6.596;2023-02-19T19:13:37;6.60;73.90
52963;DHT22;38827;53.024;6.596;2023-02-19T19:42:28;6.60;75.10
52963;DHT22;38827;53.024;6.596;2023-02-19T20:12:47;6.40;74.40
52963;DHT22;38827;53.024;6.596;2023-02-19T20:40:26;6.30;73.70
52963;DHT22;38827;53.024;6.596;2023-02-19T20:51:09;6.30;73.70
52963;DHT22;38827;53.024;6.596;2023-02-19T21:08:03;6.20;73.90
52963;DHT22;38827;53.024;6.596;2023-02-19T21:14:02;6.20;74.20
52963;DHT22;38827;53.024;6.596;2023-02-19T21:16:36;6.20;74.30
52963;DHT22;38827;53.024;6.596;2023-02-19T21:19:29;6.20;74.40
52963;DHT22;38827;53.024;6.596;2023-02-19T21:22:14;6.20;74.50
52963;DHT22;38827;53.024;6.596;2023-02-19T21:25:03;6.20;74.50
52963;DHT22;38827;53.024;6.596;2023-02-19T21:27:57;6.20;75.00
52963;DHT22;38827;53.024;6.596;2023-02-19T21:30:25;6.20;75.10
52963;DHT22;38827;53.024;6.596;2023-02-19T21:40:06;6.20;75.30
52963;DHT22;38827;53.024;6.596;2023-02-19T21:43:11;6.20;75.40
52963;DHT22;38827;53.024;6.596;2023-02-19T21:45:37;6.20;75.60
52963;DHT22;38827;53.024;6.596;2023-02-19T21:48:07;6.10;75.70
52963;DHT22;38827;53.024;6.596;2023-02-19T21:50:39;6.20;75.90
52963;DHT22;38827;53.024;6.596;2023-02-19T21:56:52;6.20;76.40
52963;DHT22;38827;53.024;6.596;2023-02-19T22:03:26;6.10;76.40
52963;DHT22;38827;53.024;6.596;2023-02-19T22:09:27;6.10;77.10
52963;DHT22;38827;53.024;6.596;2023-02-19T22:15:48;6.10;77.30
52963;DHT22;38827;53.024;6.596;2023-02-19T22:18:44;6.10;77.50
52963;DHT22;38827;53.024;6.596;2023-02-19T22:22:10;6.10;77.70
52963;DHT22;38827;53.024;6.596;2023-02-19T22:35:01;6.10;78.10
52963;DHT22;38827;53.024;6.596;2023-02-19T22:41:16;6.10;78.20
52963;DHT22;38827;53.024;6.596;2023-02-19T22:43:42;6.10;78.30
52963;DHT22;38827;53.024;6.596;2023-02-19T22:49:40;6.20;78.90
52963;DHT22;38827;53.024;6.596;2023-02-19T22:52:50;6.10;78.70
52963;DHT22;38827;53.024;6.596;2023-02-19T22:55:55;6.20;78.80
52963;DHT22;38827;53.024;6.596;2023-02-19T22:58:42;6.20;78.90
52963;DHT22;38827;53.024;6.596;2023-02-19T23:01:09;6.20;78.70
52963;DHT22;38827;53.024;6.596;2023-02-19T23:04:20;6.20;78.70
52963;DHT22;38827;53.024;6.596;2023-02-19T23:07:11;6.20;79.00
52963;DHT22;38827;53.024;6.596;2023-02-19T23:09:58;6.20;78.80
52963;DHT22;38827;53.024;6.596;2023-02-19T23:12:44;6.20;79.10
52963;DHT22;38827;53.024;6.596;2023-02-19T23:22:52;6.10;79.50
52963;DHT22;38827;53.024;6.596;2023-02-19T23:25:43;6.10;80.10
52963;DHT22;38827;53.024;6.596;2023-02-19T23:28:28;6.10;80.00
52963;DHT22;38827;53.024;6.596;2023-02-19T23:34:27;6.10;79.90
52963;DHT22;38827;53.024;6.596;2023-02-19T23:37:17;6.10;80.30
52963;DHT22;38827;53.024;6.596;2023-02-19T23:43:05;6.10;80.20
52963;DHT22;38827;53.024;6.596;2023-02-19T23:48:59;6.20;80.10
52963;DHT22;38827;53.024;6.596;2023-02-19T23:51:43;6.20;80.30
52963;DHT22;38827;53.024;6.596;2023-02-19T23:54:09;6.30;80.20
52963;DHT22;38827;53.024;6.596;2023-02-19T23:56:35;6.30;80.10
52963;DHT22;38827;53.024;6.596;2023-02-19T23:59:41;6.40;80.00
